East Thetford, VT (05043)

5:57 AM EST on December 27, 2014 (GMT -0500)
Bill's Place | Change Station
CLOSE
Current Station
Personal Weather Station
Location: Orford, NH
Elevation: 407 ft
Nearby Weather Stations

Elev 407 ft 43.90 °N, 72.14 °W | Updated 7 seconds ago

Partly Cloudy
Partly Cloudy
29.8 °F
Feels Like 30 °F
N
0.0
Wind Variable Wind from ENE
Gusts 0.0 mph

Today
High -- | Low -- °F
--% Chance of Precip.
Yesterday
High -- | Low -- °F
Precip. -- in
7:21 AM 4:17 PM
Waxing Crescent, 35% visible
Pressure 30.15 in
Visibility 8.0 miles
Clouds Clear
Windchill 30 °F
Dew Point 29 °F
Humidity 95%
Rainfall 0.00 in
Snow Depth Not available.
UV 0 out of 12
Pollen .10 out of 12
Air Quality Not available.
Flu Activity Not available.
METAR KLEB 270953Z AUTO 00000KT 8SM CLR M02/M03 A3012 RMK AO2 SLP208 T10171033

More Conditions Fewer Conditions

Pressure 30.15 in
Visibility 8.0 miles
Clouds Clear
Windchill 30 °F
Dew Point 29 °F
Humidity 95%
Rainfall 0.00 in
Snow Depth Not available.
UV 0 out of 12
Pollen .10 out of 12
Air Quality Not available.
Flu Activity Not available.
METAR KLEB 270953Z AUTO 00000KT 8SM CLR M02/M03 A3012 RMK AO2 SLP208 T10171033

More Conditions Fewer Conditions

10-Day Weather Forecast

Almanac

Astronomy

Dec. 27, 2014 Rise Set
Actual Time
Civil Twilight
Nautical Twilight
Astronomical Twilight
Moon
Length of Visible Light
Length of Day
Tomorrow will be .
, % of the Moon is Illuminated

Today's Extremes

State Highs State Lows

Community

WunderPhotos

Upload Photos

1,780,876 photos uploaded!

WunderBlogs® & News

Nearby

Air Quality

  Air Quality AQ Index Pollutant
Not available.

Snow Depth

Station Depth Elevation

Earthquake Activity

City Distance Mag. Time & Date
Minimum magnitude displayed is 2.5.

Coastal Water Temperatures

Place Temperature

Nearby Weather Stations